createdAt,value
2019-02-17T08:22:08.190Z,1016.40
2019-02-17T08:22:43.675Z,1016.40
2019-02-17T08:23:19.302Z,1016.36
2019-02-17T08:23:54.957Z,1016.38
2019-02-17T08:24:30.349Z,1016.42
2019-02-17T08:25:05.569Z,1016.37
2019-02-17T08:25:40.845Z,1016.37
2019-02-17T08:26:16.062Z,1016.39
2019-02-17T08:26:51.444Z,1016.38
2019-02-17T08:27:26.764Z,1016.37
2019-02-17T08:28:02.012Z,1016.39
2019-02-17T08:28:37.531Z,1016.38
2019-02-17T08:29:12.639Z,1016.37
2019-02-17T08:29:48.257Z,1016.40
2019-02-17T08:30:23.348Z,1016.34
2019-02-17T08:30:59.154Z,1016.37
2019-02-17T08:31:34.438Z,1016.37
2019-02-17T08:32:09.937Z,1016.38
2019-02-17T08:32:45.194Z,1016.39
2019-02-17T08:33:20.838Z,1016.40
2019-02-17T08:33:56.110Z,1016.38
2019-02-17T08:34:31.635Z,1016.37
2019-02-17T08:35:07.001Z,1016.38
2019-02-17T08:35:42.198Z,1016.35
2019-02-17T08:36:17.364Z,1016.39
2019-02-17T08:36:52.797Z,1016.37
2019-02-17T08:37:28.157Z,1016.37
2019-02-17T08:38:04.029Z,1016.37
2019-02-17T08:38:39.195Z,1016.34
2019-02-17T08:39:14.507Z,1016.35
2019-02-17T08:39:50.126Z,1016.32
2019-02-17T08:40:25.438Z,1016.29
2019-02-17T08:41:00.989Z,1016.30
2019-02-17T08:41:36.503Z,1016.29
2019-02-17T08:42:12.182Z,1016.30
2019-02-17T08:42:47.404Z,1016.30
2019-02-17T08:43:22.737Z,1016.27
2019-02-17T08:44:00.734Z,1016.30
2019-02-17T08:44:33.903Z,1016.30
2019-02-17T08:45:09.508Z,1016.32
2019-02-17T08:45:44.751Z,1016.31
2019-02-17T08:46:19.961Z,1016.27
2019-02-17T08:46:55.592Z,1016.28
2019-02-17T08:47:31.014Z,1016.26
2019-02-17T08:48:06.392Z,1016.29
2019-02-17T08:48:41.517Z,1016.30
2019-02-17T08:49:17.021Z,1016.30
2019-02-17T08:49:52.527Z,1016.26
2019-02-17T08:50:27.800Z,1016.29
2019-02-17T08:51:03.276Z,1016.28
2019-02-17T08:51:38.637Z,1016.26
2019-02-17T08:52:13.966Z,1016.28
2019-02-17T08:52:49.245Z,1016.28
2019-02-17T08:53:24.643Z,1016.26
2019-02-17T08:53:59.717Z,1016.28
2019-02-17T08:54:34.931Z,1016.28
2019-02-17T08:55:10.224Z,1016.28
2019-02-17T08:55:45.557Z,1016.28
2019-02-17T08:56:21.943Z,1016.27
2019-02-17T08:56:57.663Z,1016.28
2019-02-17T08:57:32.962Z,1016.26
2019-02-17T08:58:08.287Z,1016.25
2019-02-17T08:58:43.546Z,1016.22
2019-02-17T08:59:19.080Z,1016.24
2019-02-17T08:59:54.554Z,1016.22
2019-02-17T09:00:29.770Z,1016.27
2019-02-17T09:01:05.187Z,1016.29
2019-02-17T09:01:41.221Z,1016.28
2019-02-17T09:02:16.618Z,1016.28
2019-02-17T09:02:52.039Z,1016.31
2019-02-17T09:03:27.236Z,1016.24
2019-02-17T09:04:02.638Z,1016.28
2019-02-17T09:04:38.118Z,1016.26
2019-02-17T09:05:13.431Z,1016.21
2019-02-17T09:05:48.607Z,1016.23
2019-02-17T09:06:24.154Z,1016.24
2019-02-17T09:06:59.363Z,1016.25
2019-02-17T09:07:34.872Z,1016.26
2019-02-17T09:08:10.366Z,1016.24
2019-02-17T09:08:45.587Z,1016.26
2019-02-17T09:09:20.892Z,1016.23
2019-02-17T09:09:56.126Z,1016.22
2019-02-17T09:10:31.295Z,1016.25
2019-02-17T09:11:06.690Z,1016.26
2019-02-17T09:11:42.107Z,1016.24
2019-02-17T09:12:17.423Z,1016.24
2019-02-17T09:12:52.596Z,1016.21
2019-02-17T09:13:27.999Z,1016.22
2019-02-17T09:14:03.203Z,1016.22
2019-02-17T09:14:38.321Z,1016.20
2019-02-17T09:15:13.511Z,1016.17
2019-02-17T09:15:48.624Z,1016.20
2019-02-17T09:16:24.100Z,1016.19
2019-02-17T09:16:59.399Z,1016.23
2019-02-17T09:17:34.774Z,1016.19
2019-02-17T09:18:09.996Z,1016.16
2019-02-17T09:18:45.399Z,1016.20
2019-02-17T09:19:20.613Z,1016.18
2019-02-17T09:19:55.795Z,1016.22
2019-02-17T09:20:31.318Z,1016.23
2019-02-17T09:21:06.741Z,1016.20
2019-02-17T09:21:42.429Z,1016.22
2019-02-17T09:22:17.726Z,1016.17
2019-02-17T09:22:52.930Z,1016.20
2019-02-17T09:23:28.298Z,1016.18
2019-02-17T09:24:03.622Z,1016.19
2019-02-17T09:24:39.108Z,1016.15
2019-02-17T09:25:14.614Z,1016.18
2019-02-17T09:25:49.818Z,1016.17
2019-02-17T09:26:25.166Z,1016.14
2019-02-17T09:27:00.462Z,1016.12
2019-02-17T09:27:35.923Z,1016.12
2019-02-17T09:28:11.100Z,1016.08
2019-02-17T09:28:46.434Z,1016.09
2019-02-17T09:29:21.714Z,1016.09
2019-02-17T09:29:57.136Z,1016.08
2019-02-17T09:30:32.579Z,1016.05
2019-02-17T09:31:08.191Z,1016.06
2019-02-17T09:31:43.385Z,1015.97
2019-02-17T09:32:18.715Z,1016.02
2019-02-17T09:32:54.253Z,1016.02
2019-02-17T09:33:29.564Z,1015.99
2019-02-17T09:34:04.842Z,1016.01
2019-02-17T09:34:40.089Z,1015.94
2019-02-17T09:35:15.698Z,1016.00
2019-02-17T09:35:50.809Z,1015.95
2019-02-17T09:36:26.189Z,1015.97
2019-02-17T09:37:01.716Z,1015.97
2019-02-17T09:37:36.897Z,1015.96
2019-02-17T09:38:12.047Z,1015.96
2019-02-17T09:38:47.542Z,1015.99
2019-02-17T09:39:22.858Z,1015.98
2019-02-17T09:39:58.034Z,1015.96
2019-02-17T09:40:33.445Z,1015.97
2019-02-17T09:41:08.522Z,1015.94
2019-02-17T09:41:44.733Z,1015.96
2019-02-17T09:42:20.111Z,1015.96
2019-02-17T09:42:55.533Z,1015.96
2019-02-17T09:43:31.071Z,1015.98
2019-02-17T09:44:06.301Z,1015.94
2019-02-17T09:44:41.883Z,1015.95
2019-02-17T09:45:16.913Z,1015.95
2019-02-17T09:45:52.095Z,1015.93
2019-02-17T09:46:27.310Z,1015.96
2019-02-17T09:47:02.488Z,1015.95
2019-02-17T09:47:37.812Z,1015.96
2019-02-17T09:48:13.105Z,1015.96
2019-02-17T09:48:48.544Z,1015.93
2019-02-17T09:49:23.713Z,1015.97
2019-02-17T09:49:59.338Z,1015.94
2019-02-17T09:50:34.530Z,1015.92
2019-02-17T09:51:09.645Z,1015.92
2019-02-17T09:51:45.033Z,1015.95
2019-02-17T09:52:20.554Z,1015.95
2019-02-17T09:52:55.850Z,1015.94
2019-02-17T09:53:30.948Z,1015.95
2019-02-17T09:54:06.381Z,1015.90
2019-02-17T09:54:41.796Z,1015.94
2019-02-17T09:55:17.180Z,1015.93
2019-02-17T09:55:52.476Z,1015.95
2019-02-17T09:56:27.860Z,1015.95
2019-02-17T09:57:03.196Z,1015.95
2019-02-17T09:57:38.716Z,1015.90
2019-02-17T09:58:14.041Z,1015.98
2019-02-17T09:58:49.409Z,1015.94
2019-02-17T09:59:24.751Z,1015.93
2019-02-17T09:59:59.738Z,1015.91
2019-02-17T10:00:35.447Z,1015.96
2019-02-17T10:01:10.835Z,1015.93
2019-02-17T10:01:46.062Z,1015.93
2019-02-17T10:02:26.553Z,1015.91
2019-02-17T10:02:57.190Z,1015.93
2019-02-17T10:03:32.696Z,1015.94
2019-02-17T10:04:07.905Z,1015.92
2019-02-17T10:04:43.134Z,1015.92
2019-02-17T10:05:18.573Z,1015.95
2019-02-17T10:05:53.950Z,1015.92
2019-02-17T10:06:29.178Z,1015.93
2019-02-17T10:07:04.550Z,1015.92
2019-02-17T10:07:40.390Z,1015.90
2019-02-17T10:08:15.678Z,1015.91
2019-02-17T10:08:51.182Z,1015.94
2019-02-17T10:09:26.365Z,1015.93
2019-02-17T10:10:01.842Z,1015.91
2019-02-17T10:10:37.423Z,1015.90
2019-02-17T10:11:12.731Z,1015.89
2019-02-17T10:11:47.946Z,1015.89
2019-02-17T10:12:23.359Z,1015.91
2019-02-17T10:13:01.175Z,1015.87
2019-02-17T10:13:34.249Z,1015.91
2019-02-17T10:14:09.442Z,1015.87
2019-02-17T10:14:44.658Z,1015.90
2019-02-17T10:15:19.987Z,1015.85
2019-02-17T10:15:55.428Z,1015.88
2019-02-17T10:16:30.629Z,1015.87
2019-02-17T10:17:06.036Z,1015.88
2019-02-17T10:17:41.227Z,1015.86
2019-02-17T10:18:16.666Z,1015.87
2019-02-17T10:18:51.758Z,1015.80
2019-02-17T10:19:27.277Z,1015.82
2019-02-17T10:20:02.555Z,1015.82
2019-02-17T10:20:37.826Z,1015.82
2019-02-17T10:21:13.412Z,1015.81
2019-02-17T10:21:48.831Z,1015.82
2019-02-17T10:22:24.211Z,1015.83
2019-02-17T10:22:59.623Z,1015.81
2019-02-17T10:23:34.920Z,1015.84
2019-02-17T10:24:10.368Z,1015.84
2019-02-17T10:24:45.746Z,1015.86
2019-02-17T10:25:20.974Z,1015.81
2019-02-17T10:25:56.600Z,1015.80
2019-02-17T10:26:31.620Z,1015.80
2019-02-17T10:27:06.695Z,1015.78
2019-02-17T10:27:42.296Z,1015.79
2019-02-17T10:28:17.672Z,1015.78
2019-02-17T10:28:52.991Z,1015.80
2019-02-17T10:29:28.469Z,1015.75
2019-02-17T10:30:04.088Z,1015.80
2019-02-17T10:30:39.663Z,1015.77
2019-02-17T10:31:15.034Z,1015.72
2019-02-17T10:31:50.614Z,1015.76
2019-02-17T10:32:35.811Z,1015.76
2019-02-17T10:33:01.396Z,1015.76
2019-02-17T10:33:38.097Z,1015.77
2019-02-17T10:34:13.417Z,1015.76
2019-02-17T10:34:48.937Z,1015.74
2019-02-17T10:35:24.245Z,1015.74
2019-02-17T10:35:59.975Z,1015.70
2019-02-17T10:36:35.370Z,1015.70
2019-02-17T10:37:10.881Z,1015.73
2019-02-17T10:37:46.255Z,1015.69
2019-02-17T10:38:21.798Z,1015.70
2019-02-17T10:38:58.412Z,1015.73
2019-02-17T10:39:32.326Z,1015.70
2019-02-17T10:40:07.720Z,1015.70
2019-02-17T10:40:43.240Z,1015.72
2019-02-17T10:41:18.629Z,1015.70
2019-02-17T10:41:54.530Z,1015.67
2019-02-17T10:42:29.712Z,1015.70
2019-02-17T10:43:04.824Z,1015.65
2019-02-17T10:43:40.008Z,1015.68
2019-02-17T10:44:15.431Z,1015.66
2019-02-17T10:44:50.941Z,1015.62
2019-02-17T10:45:26.549Z,1015.61
2019-02-17T10:46:01.732Z,1015.66
2019-02-17T10:46:37.616Z,1015.61
2019-02-17T10:47:13.336Z,1015.62
2019-02-17T10:47:48.772Z,1015.67
2019-02-17T10:48:23.941Z,1015.61
2019-02-17T10:48:59.357Z,1015.66
2019-02-17T10:49:34.874Z,1015.59
2019-02-17T10:50:10.488Z,1015.60
2019-02-17T10:50:45.680Z,1015.59
2019-02-17T10:51:21.400Z,1015.61
2019-02-17T10:51:57.087Z,1015.56
2019-02-17T10:52:32.522Z,1015.58
2019-02-17T10:53:07.614Z,1015.57
2019-02-17T10:53:42.846Z,1015.55
2019-02-17T10:54:18.122Z,1015.57
2019-02-17T10:54:53.366Z,1015.56
2019-02-17T10:55:28.735Z,1015.55
2019-02-17T10:56:04.365Z,1015.57
2019-02-17T10:56:39.566Z,1015.57
2019-02-17T10:57:14.959Z,1015.54
2019-02-17T10:57:50.297Z,1015.57
2019-02-17T10:58:25.922Z,1015.56
2019-02-17T10:59:01.305Z,1015.55
2019-02-17T10:59:36.587Z,1015.56
2019-02-17T11:00:12.033Z,1015.56
2019-02-17T11:00:47.261Z,1015.55
2019-02-17T11:01:22.659Z,1015.50
2019-02-17T11:01:57.956Z,1015.54
2019-02-17T11:02:33.341Z,1015.52
2019-02-17T11:03:08.822Z,1015.53
2019-02-17T11:03:44.233Z,1015.50
2019-02-17T11:04:19.650Z,1015.50
2019-02-17T11:04:54.919Z,1015.48
2019-02-17T11:05:30.039Z,1015.50
2019-02-17T11:06:05.335Z,1015.47
2019-02-17T11:06:40.663Z,1015.50
2019-02-17T11:07:16.183Z,1015.50
2019-02-17T11:07:51.605Z,1015.45
2019-02-17T11:08:27.056Z,1015.46
2019-02-17T11:09:02.551Z,1015.47
2019-02-17T11:09:38.178Z,1015.44
2019-02-17T11:10:13.490Z,1015.42
2019-02-17T11:10:48.791Z,1015.41
2019-02-17T11:11:24.324Z,1015.41
2019-02-17T11:11:59.911Z,1015.39
2019-02-17T11:12:35.545Z,1015.38
2019-02-17T11:13:10.853Z,1015.40
2019-02-17T11:13:46.309Z,1015.36
2019-02-17T11:14:21.899Z,1015.38
2019-02-17T11:14:57.530Z,1015.35
2019-02-17T11:15:33.226Z,1015.36
2019-02-17T11:16:08.653Z,1015.31
2019-02-17T11:16:43.944Z,1015.27
2019-02-17T11:17:19.186Z,1015.31
2019-02-17T11:17:54.698Z,1015.35
2019-02-17T11:18:29.940Z,1015.32
2019-02-17T11:19:05.318Z,1015.27
2019-02-17T11:19:40.600Z,1015.28
2019-02-17T11:20:15.993Z,1015.29
2019-02-17T11:20:51.232Z,1015.28
2019-02-17T11:21:26.607Z,1015.27
2019-02-17T11:22:02.142Z,1015.24
2019-02-17T11:22:37.329Z,1015.27
2019-02-17T11:23:12.568Z,1015.26
2019-02-17T11:23:47.870Z,1015.25
2019-02-17T11:24:23.412Z,1015.29
2019-02-17T11:24:58.734Z,1015.24
2019-02-17T11:25:34.125Z,1015.23
2019-02-17T11:26:09.455Z,1015.23
2019-02-17T11:26:45.088Z,1015.21
2019-02-17T11:27:20.404Z,1015.21
2019-02-17T11:27:55.528Z,1015.19
2019-02-17T11:28:30.813Z,1015.18
2019-02-17T11:29:06.268Z,1015.20
2019-02-17T11:29:41.381Z,1015.18
2019-02-17T11:30:16.912Z,1015.18
2019-02-17T11:30:52.321Z,1015.14
2019-02-17T11:31:27.667Z,1015.10
2019-02-17T11:32:03.088Z,1015.08
2019-02-17T11:32:38.208Z,1015.09
2019-02-17T11:33:13.609Z,1015.10
2019-02-17T11:33:49.224Z,1015.06
2019-02-17T11:34:24.315Z,1015.10
2019-02-17T11:34:59.678Z,1015.10
2019-02-17T11:35:35.278Z,1015.06
2019-02-17T11:36:10.724Z,1015.10
2019-02-17T11:36:46.232Z,1015.07
2019-02-17T11:37:22.006Z,1015.03
2019-02-17T11:37:57.619Z,1015.03
2019-02-17T11:38:32.977Z,1015.02
2019-02-17T11:39:08.381Z,1015.00
2019-02-17T11:39:43.799Z,1015.03
2019-02-17T11:40:19.337Z,1014.99
2019-02-17T11:40:54.762Z,1014.95
2019-02-17T11:41:30.087Z,1014.96
2019-02-17T11:42:05.335Z,1014.99
2019-02-17T11:42:40.857Z,1014.98
2019-02-17T11:43:16.220Z,1014.97
2019-02-17T11:43:51.525Z,1015.00
2019-02-17T11:44:26.685Z,1015.01
2019-02-17T11:45:02.274Z,1014.97
2019-02-17T11:45:38.007Z,1014.98
2019-02-17T11:46:13.195Z,1015.00
2019-02-17T11:46:48.728Z,1014.90
2019-02-17T11:47:24.322Z,1014.93
2019-02-17T11:47:59.761Z,1014.91
2019-02-17T11:48:35.148Z,1014.90
2019-02-17T11:49:10.471Z,1014.89
2019-02-17T11:49:45.678Z,1014.93
2019-02-17T11:50:21.006Z,1014.89
2019-02-17T11:50:56.435Z,1014.89
2019-02-17T11:51:31.758Z,1014.88
2019-02-17T11:52:07.265Z,1014.83
2019-02-17T11:52:42.797Z,1014.85
2019-02-17T11:53:18.302Z,1014.87
2019-02-17T11:53:53.931Z,1014.82
2019-02-17T11:54:29.227Z,1014.81
2019-02-17T11:55:04.698Z,1014.79
2019-02-17T11:55:40.226Z,1014.79
2019-02-17T11:56:15.465Z,1014.81
2019-02-17T11:56:50.828Z,1014.81
2019-02-17T11:57:26.230Z,1014.80
2019-02-17T11:58:01.532Z,1014.82
2019-02-17T11:58:37.066Z,1014.84
2019-02-17T11:59:12.418Z,1014.85
2019-02-17T11:59:47.657Z,1014.83
2019-02-17T12:00:23.215Z,1014.83
2019-02-17T12:00:58.677Z,1014.79
2019-02-17T12:01:34.463Z,1014.79
2019-02-17T12:02:09.901Z,1014.81
2019-02-17T12:02:45.180Z,1014.76
2019-02-17T12:03:20.712Z,1014.75
2019-02-17T12:03:56.101Z,1014.77
2019-02-17T12:04:31.894Z,1014.74
2019-02-17T12:05:07.161Z,1014.74
2019-02-17T12:05:42.791Z,1014.75
2019-02-17T12:06:18.192Z,1014.75
2019-02-17T12:06:53.653Z,1014.74
2019-02-17T12:07:28.878Z,1014.74
2019-02-17T12:08:04.393Z,1014.77
2019-02-17T12:08:39.601Z,1014.74
2019-02-17T12:09:14.932Z,1014.74
2019-02-17T12:09:50.253Z,1014.74
2019-02-17T12:10:25.802Z,1014.74
2019-02-17T12:11:01.132Z,1014.69
2019-02-17T12:11:37.310Z,1014.70
2019-02-17T12:12:13.729Z,1014.70
2019-02-17T12:12:48.219Z,1014.64
2019-02-17T12:13:23.526Z,1014.66
2019-02-17T12:13:59.185Z,1014.67
2019-02-17T12:14:34.686Z,1014.65
2019-02-17T12:15:10.319Z,1014.60
2019-02-17T12:15:46.011Z,1014.59
2019-02-17T12:16:21.763Z,1014.59
2019-02-17T12:16:57.077Z,1014.59
2019-02-17T12:17:32.768Z,1014.57
2019-02-17T12:18:08.254Z,1014.54
2019-02-17T12:18:43.690Z,1014.51
2019-02-17T12:19:18.668Z,1014.54
2019-02-17T12:19:53.834Z,1014.48
2019-02-17T12:20:29.018Z,1014.48
2019-02-17T12:21:04.353Z,1014.50
2019-02-17T12:21:39.878Z,1014.51
2019-02-17T12:22:15.507Z,1014.51
2019-02-17T12:22:50.846Z,1014.51
2019-02-17T12:23:26.287Z,1014.47
2019-02-17T12:24:02.616Z,1014.48
2019-02-17T12:24:37.163Z,1014.50
2019-02-17T12:25:12.746Z,1014.48
2019-02-17T12:25:48.112Z,1014.48
2019-02-17T12:26:23.399Z,1014.50
2019-02-17T12:26:58.966Z,1014.43
2019-02-17T12:27:34.268Z,1014.42
2019-02-17T12:28:10.039Z,1014.45
2019-02-17T12:28:45.556Z,1014.43
2019-02-17T12:29:20.868Z,1014.38
2019-02-17T12:29:56.395Z,1014.41
2019-02-17T12:30:32.023Z,1014.39
2019-02-17T12:31:07.329Z,1014.42
2019-02-17T12:31:42.758Z,1014.40
2019-02-17T12:32:18.074Z,1014.39
2019-02-17T12:32:53.500Z,1014.41
2019-02-17T12:33:28.714Z,1014.41
2019-02-17T12:34:04.246Z,1014.37
2019-02-17T12:34:39.338Z,1014.36
2019-02-17T12:35:14.657Z,1014.34
2019-02-17T12:35:50.065Z,1014.39
2019-02-17T12:36:25.385Z,1014.36
2019-02-17T12:37:00.772Z,1014.34
2019-02-17T12:37:35.902Z,1014.34
2019-02-17T12:38:11.508Z,1014.31
2019-02-17T12:38:47.007Z,1014.31
2019-02-17T12:39:22.303Z,1014.28
2019-02-17T12:39:57.695Z,1014.31
2019-02-17T12:40:33.148Z,1014.23
2019-02-17T12:41:08.523Z,1014.27
2019-02-17T12:41:43.963Z,1014.26
2019-02-17T12:42:19.403Z,1014.22
2019-02-17T12:42:54.704Z,1014.21
2019-02-17T12:43:30.484Z,1014.21
2019-02-17T12:44:05.704Z,1014.23
2019-02-17T12:44:40.945Z,1014.19
2019-02-17T12:45:18.226Z,1014.21
2019-02-17T12:45:51.574Z,1014.17
2019-02-17T12:46:26.899Z,1014.18
2019-02-17T12:47:02.440Z,1014.13
2019-02-17T12:47:37.999Z,1014.14
2019-02-17T12:48:13.439Z,1014.16
2019-02-17T12:48:48.749Z,1014.16
2019-02-17T12:49:24.155Z,1014.11
2019-02-17T12:49:59.383Z,1014.16
2019-02-17T12:50:34.727Z,1014.11
2019-02-17T12:51:10.141Z,1014.12
2019-02-17T12:51:46.018Z,1014.08
2019-02-17T12:52:21.412Z,1014.11
2019-02-17T12:52:56.897Z,1014.05
2019-02-17T12:53:32.606Z,1014.08
2019-02-17T12:54:08.069Z,1014.09
2019-02-17T12:54:43.518Z,1014.13
2019-02-17T12:55:18.840Z,1014.09
2019-02-17T12:55:54.198Z,1014.08
2019-02-17T12:56:29.496Z,1014.09
2019-02-17T12:57:04.834Z,1014.09
2019-02-17T12:57:40.587Z,1014.07
2019-02-17T12:58:15.837Z,1014.05
2019-02-17T12:58:51.191Z,1014.06
2019-02-17T12:59:26.470Z,1014.04
2019-02-17T13:00:02.026Z,1014.06
2019-02-17T13:00:37.222Z,1013.99
2019-02-17T13:01:13.552Z,1013.99
2019-02-17T13:01:48.531Z,1013.99
2019-02-17T13:02:23.550Z,1014.00
2019-02-17T13:02:58.756Z,1014.01
2019-02-17T13:03:33.989Z,1014.02
2019-02-17T13:04:09.278Z,1013.98
2019-02-17T13:04:44.501Z,1014.01
2019-02-17T13:05:20.173Z,1014.01
2019-02-17T13:05:55.442Z,1014.00
2019-02-17T13:06:31.024Z,1013.98
2019-02-17T13:07:06.151Z,1013.97
2019-02-17T13:07:42.909Z,1013.97
2019-02-17T13:08:17.504Z,1013.97
2019-02-17T13:08:52.707Z,1013.98
2019-02-17T13:09:28.129Z,1013.97
2019-02-17T13:10:03.628Z,1013.96
2019-02-17T13:10:38.979Z,1013.94
2019-02-17T13:11:14.477Z,1013.91
2019-02-17T13:11:49.698Z,1013.91
2019-02-17T13:12:24.995Z,1013.91
2019-02-17T13:13:01.222Z,1013.92
2019-02-17T13:13:36.517Z,1013.88
2019-02-17T13:14:11.953Z,1013.89
2019-02-17T13:14:47.356Z,1013.89
2019-02-17T13:15:22.684Z,1013.85
2019-02-17T13:15:57.814Z,1013.88
2019-02-17T13:16:33.336Z,1013.94
2019-02-17T13:17:08.959Z,1013.88
2019-02-17T13:17:44.395Z,1013.81
2019-02-17T13:18:19.584Z,1013.88
2019-02-17T13:18:55.004Z,1013.83
2019-02-17T13:19:30.348Z,1013.82
2019-02-17T13:20:05.861Z,1013.86
2019-02-17T13:20:41.179Z,1013.81
2019-02-17T13:21:16.693Z,1013.78
2019-02-17T13:21:52.170Z,1013.81
2019-02-17T13:22:27.496Z,1013.80
2019-02-17T13:23:02.994Z,1013.78
2019-02-17T13:23:38.437Z,1013.78
2019-02-17T13:24:13.742Z,1013.80
2019-02-17T13:24:49.183Z,1013.81
2019-02-17T13:25:24.590Z,1013.78
2019-02-17T13:25:59.926Z,1013.81
2019-02-17T13:26:35.536Z,1013.79
2019-02-17T13:27:10.768Z,1013.81
2019-02-17T13:27:46.039Z,1013.74
2019-02-17T13:28:21.551Z,1013.75
2019-02-17T13:28:56.953Z,1013.75
2019-02-17T13:29:32.179Z,1013.73
2019-02-17T13:30:07.487Z,1013.74
2019-02-17T13:30:43.123Z,1013.76
2019-02-17T13:31:18.726Z,1013.76
2019-02-17T13:31:54.181Z,1013.70
2019-02-17T13:32:29.572Z,1013.79
2019-02-17T13:33:05.003Z,1013.74
2019-02-17T13:33:40.288Z,1013.75
2019-02-17T13:34:15.612Z,1013.77
2019-02-17T13:34:51.128Z,1013.74
2019-02-17T13:35:26.673Z,1013.76
2019-02-17T13:36:02.171Z,1013.75
2019-02-17T13:36:37.584Z,1013.75
2019-02-17T13:37:13.116Z,1013.73
2019-02-17T13:37:48.351Z,1013.74
2019-02-17T13:38:23.652Z,1013.73
2019-02-17T13:38:58.763Z,1013.70
2019-02-17T13:39:34.154Z,1013.70
2019-02-17T13:40:09.680Z,1013.71
2019-02-17T13:40:44.969Z,1013.68
2019-02-17T13:41:20.376Z,1013.70
2019-02-17T13:41:55.664Z,1013.66
2019-02-17T13:42:31.224Z,1013.70
2019-02-17T13:43:06.832Z,1013.73
2019-02-17T13:43:42.250Z,1013.69
2019-02-17T13:44:17.549Z,1013.68
2019-02-17T13:44:52.783Z,1013.71
2019-02-17T13:45:28.182Z,1013.68
2019-02-17T13:46:03.704Z,1013.67
2019-02-17T13:46:39.206Z,1013.64
2019-02-17T13:47:14.631Z,1013.62
2019-02-17T13:47:50.359Z,1013.63
2019-02-17T13:48:25.698Z,1013.62
2019-02-17T13:49:00.797Z,1013.59
2019-02-17T13:49:36.016Z,1013.60
2019-02-17T13:50:11.330Z,1013.61
2019-02-17T13:50:47.023Z,1013.60
2019-02-17T13:51:22.167Z,1013.62
2019-02-17T13:51:57.499Z,1013.60
2019-02-17T13:52:32.925Z,1013.56
2019-02-17T13:53:11.847Z,1013.59
2019-02-17T13:53:43.803Z,1013.59
2019-02-17T13:54:18.936Z,1013.58
2019-02-17T13:54:54.267Z,1013.55
2019-02-17T13:55:29.495Z,1013.52
2019-02-17T13:56:04.892Z,1013.53
2019-02-17T13:56:40.411Z,1013.52
2019-02-17T13:57:15.822Z,1013.54
2019-02-17T13:57:52.427Z,1013.56
2019-02-17T13:58:26.678Z,1013.57
2019-02-17T13:59:02.011Z,1013.53
2019-02-17T13:59:37.533Z,1013.54
2019-02-17T14:00:12.862Z,1013.53
2019-02-17T14:00:48.166Z,1013.51
2019-02-17T14:01:23.692Z,1013.52
2019-02-17T14:01:58.905Z,1013.53
2019-02-17T14:02:34.533Z,1013.51
2019-02-17T14:03:09.828Z,1013.49
2019-02-17T14:03:48.975Z,1013.51
2019-02-17T14:04:20.834Z,1013.52
2019-02-17T14:04:56.182Z,1013.49
2019-02-17T14:05:31.595Z,1013.53
2019-02-17T14:06:07.225Z,1013.56
2019-02-17T14:06:42.627Z,1013.48
2019-02-17T14:07:18.054Z,1013.50
2019-02-17T14:07:53.454Z,1013.49
2019-02-17T14:08:31.229Z,1013.49
2019-02-17T14:09:04.030Z,1013.49
2019-02-17T14:09:39.674Z,1013.51
2019-02-17T14:10:15.097Z,1013.48
2019-02-17T14:10:50.732Z,1013.48
2019-02-17T14:11:26.154Z,1013.48
2019-02-17T14:12:04.887Z,1013.48
2019-02-17T14:12:40.314Z,1013.47
2019-02-17T14:13:15.871Z,1013.48
2019-02-17T14:13:51.447Z,1013.44
2019-02-17T14:14:26.835Z,1013.47
2019-02-17T14:15:02.236Z,1013.46
2019-02-17T14:15:38.410Z,1013.46
2019-02-17T14:16:13.604Z,1013.44
2019-02-17T14:16:48.947Z,1013.43
2019-02-17T14:17:24.247Z,1013.44
2019-02-17T14:17:59.702Z,1013.42
2019-02-17T14:18:34.995Z,1013.40
2019-02-17T14:19:10.215Z,1013.42
2019-02-17T14:19:46.032Z,1013.39
2019-02-17T14:20:20.888Z,1013.43
2019-02-17T14:20:56.386Z,1013.43
2019-02-17T14:21:31.725Z,1013.42
2019-02-17T14:22:07.115Z,1013.41
2019-02-17T14:22:42.548Z,1013.41
2019-02-17T14:23:17.834Z,1013.42
2019-02-17T14:23:53.092Z,1013.34
2019-02-17T14:24:28.417Z,1013.34
2019-02-17T14:25:03.784Z,1013.37
2019-02-17T14:25:38.881Z,1013.38
2019-02-17T14:26:14.428Z,1013.40
2019-02-17T14:26:49.569Z,1013.37
2019-02-17T14:27:24.886Z,1013.43
2019-02-17T14:28:00.290Z,1013.38
2019-02-17T14:28:35.535Z,1013.41
2019-02-17T14:29:10.946Z,1013.39
2019-02-17T14:29:46.478Z,1013.37
2019-02-17T14:30:21.804Z,1013.41
2019-02-17T14:30:57.040Z,1013.40
2019-02-17T14:31:32.385Z,1013.40
2019-02-17T14:32:07.610Z,1013.38
2019-02-17T14:32:42.939Z,1013.41
2019-02-17T14:33:18.273Z,1013.41
2019-02-17T14:33:58.512Z,1013.40
2019-02-17T14:34:28.810Z,1013.38
2019-02-17T14:35:04.422Z,1013.40
2019-02-17T14:35:39.890Z,1013.39
2019-02-17T14:36:15.213Z,1013.41
2019-02-17T14:36:50.653Z,1013.42
2019-02-17T14:37:26.249Z,1013.42
2019-02-17T14:38:01.595Z,1013.43
2019-02-17T14:38:36.682Z,1013.45
2019-02-17T14:39:12.138Z,1013.40
2019-02-17T14:39:47.639Z,1013.41
2019-02-17T14:40:22.889Z,1013.41
2019-02-17T14:40:58.121Z,1013.42
2019-02-17T14:41:33.358Z,1013.48
2019-02-17T14:42:08.648Z,1013.42
2019-02-17T14:42:44.424Z,1013.45
2019-02-17T14:43:19.725Z,1013.41
2019-02-17T14:43:55.051Z,1013.44
2019-02-17T14:44:30.361Z,1013.42
2019-02-17T14:45:05.587Z,1013.44
2019-02-17T14:45:40.975Z,1013.40
2019-02-17T14:46:17.476Z,1013.44
2019-02-17T14:46:52.839Z,1013.42
2019-02-17T14:47:28.798Z,1013.41
2019-02-17T14:48:04.581Z,1013.42
2019-02-17T14:48:39.913Z,1013.47
2019-02-17T14:49:15.318Z,1013.42
2019-02-17T14:49:50.908Z,1013.43
2019-02-17T14:50:26.508Z,1013.44
2019-02-17T14:51:02.017Z,1013.39
2019-02-17T14:51:37.586Z,1013.41
2019-02-17T14:52:13.110Z,1013.36
2019-02-17T14:52:48.417Z,1013.40
2019-02-17T14:53:23.763Z,1013.36
2019-02-17T14:53:59.255Z,1013.36
2019-02-17T14:54:34.693Z,1013.34
2019-02-17T14:55:10.211Z,1013.37
2019-02-17T14:55:45.559Z,1013.37
2019-02-17T14:56:21.045Z,1013.35
2019-02-17T14:56:56.955Z,1013.38
2019-02-17T14:57:32.460Z,1013.36
2019-02-17T14:58:08.029Z,1013.37
2019-02-17T14:58:43.324Z,1013.30
2019-02-17T14:59:18.744Z,1013.31
2019-02-17T14:59:54.040Z,1013.36
2019-02-17T15:00:29.469Z,1013.32
2019-02-17T15:01:04.779Z,1013.31
2019-02-17T15:01:40.112Z,1013.28
2019-02-17T15:02:15.535Z,1013.34
2019-02-17T15:02:50.868Z,1013.29
2019-02-17T15:03:26.066Z,1013.25
2019-02-17T15:04:08.479Z,1013.25
2019-02-17T15:04:36.794Z,1013.30
2019-02-17T15:05:12.227Z,1013.26
2019-02-17T15:05:48.014Z,1013.26
2019-02-17T15:06:23.075Z,1013.25
2019-02-17T15:06:58.694Z,1013.25
2019-02-17T15:07:33.971Z,1013.24
2019-02-17T15:08:09.363Z,1013.20
2019-02-17T15:08:44.686Z,1013.22
2019-02-17T15:09:20.186Z,1013.24
2019-02-17T15:09:55.598Z,1013.23
2019-02-17T15:10:30.903Z,1013.21
2019-02-17T15:11:06.651Z,1013.20
2019-02-17T15:11:42.256Z,1013.22
2019-02-17T15:12:17.679Z,1013.18
2019-02-17T15:12:53.381Z,1013.18
2019-02-17T15:13:28.735Z,1013.13
2019-02-17T15:14:04.156Z,1013.18
2019-02-17T15:14:39.362Z,1013.14
2019-02-17T15:15:14.581Z,1013.15
2019-02-17T15:15:50.099Z,1013.10
2019-02-17T15:16:25.351Z,1013.10
2019-02-17T15:17:00.561Z,1013.07
2019-02-17T15:17:35.971Z,1013.05
2019-02-17T15:18:11.232Z,1013.06
2019-02-17T15:18:47.480Z,1013.06
2019-02-17T15:19:22.373Z,1013.05
2019-02-17T15:19:57.860Z,1013.02
2019-02-17T15:20:33.289Z,1013.07
2019-02-17T15:21:08.610Z,1013.10
2019-02-17T15:21:43.848Z,1013.04
2019-02-17T15:22:19.249Z,1013.05
2019-02-17T15:22:54.635Z,1013.04
2019-02-17T15:23:30.580Z,1013.04
2019-02-17T15:24:07.860Z,1013.06
2019-02-17T15:24:41.465Z,1013.05
2019-02-17T15:25:16.779Z,1013.05
2019-02-17T15:25:52.087Z,1013.01
2019-02-17T15:26:28.012Z,1013.01
2019-02-17T15:27:03.757Z,1013.05
2019-02-17T15:27:38.800Z,1013.02
2019-02-17T15:28:14.189Z,1013.02
2019-02-17T15:28:51.361Z,1013.03
2019-02-17T15:29:24.648Z,1012.98
2019-02-17T15:29:59.823Z,1012.98